GW3313 Weather Reports


time (UTC)temp
F
wind
direction
speed
knots
gust
knots
rain 1hr
in
rain 24hr
in
rain mn
in
humidity
%
barometer
mb
20260510033017 76 0.0 1.7 0.00 0.12 0.12 81 1010.0
20260510032017 76 0.0 0.0 0.00 0.12 0.12 81 1009.8
20260510031017 76 0.0 0.0 0.00 0.12 0.12 81 1009.6
20260510030017 77 0.0 0.0 0.00 0.12 0.12 80 1009.4
20260510025017 77 0.0 0.0 0.00 0.12 0.12 80 1009.3
20260510024016 78 0.0 0.0 0.00 0.12 0.12 79 1009.2
20260510023037 78 0.0 0.0 0.00 0.12 0.12 79 1009.1
20260510022016 79 0.0 0.0 0.00 0.12 0.12 78 1009.1
20260510021017 79 0.0 0.9 0.00 0.12 0.12 77 1008.9
20260510020016 80 0.0 0.0 0.00 0.12 0.12 76 1008.8
20260510015016 80 0.0 2.6 0.00 0.12 0.12 76 1008.5
20260510014016 80 0.0 0.9 0.00 0.12 0.12 75 1008.5
20260510013016 81 0.0 0.9 0.00 0.12 0.12 74 1008.4
20260510012056 81 0.0 3.5 0.00 0.12 0.12 73 1008.4
20260510011642 82 0.0 0.0 0.00 0.12 0.12 71 1008.3
20260509212536 78 0.0 1.7 0.00 0.12 0.12 62 1007.6
20260509211516 76 180 1.7 10.4 0.05 0.12 0.12 68 1008.0
20260509210627 72 180 1.7 7.8 0.05 0.12 0.12 70 1008.1
20260509210016 72 180 1.7 9.6 0.05 0.12 0.12 72 1008.3
20260509205016 72 180 0.9 4.3 0.05 0.12 0.12 72 1008.3
20260509204016 72 113 0.9 7.0 0.05 0.12 0.12 79 1008.5
20260509203016 74 90 2.6 14.8 0.05 0.12 0.12 70 1008.6
20260509202016 86 0 2.6 10.4 0.02 0.09 0.09 62 1009.3
20260509201016 90 0 0.9 3.5 0.00 0.07 0.07 54 1008.8
20260509200016 90 270 0.9 5.2 0.00 0.07 0.07 52 1008.7
20260509195016 91 0.0 0.0 0.00 0.07 0.07 52 1008.6
20260509194015 91 0.0 0.0 0.00 0.07 0.07 53 1008.7
20260509193015 91 158 0.9 4.3 0.00 0.07 0.07 53 1009.0
20260509192016 90 225 0.9 3.5 0.00 0.07 0.07 56 1009.3
20260509191016 89 270 0.9 3.5 0.00 0.07 0.07 57 1009.3
20260509190016 90 0.0 4.3 0.00 0.07 0.07 58 1009.3
20260509185015 89 248 0.9 5.2 0.00 0.07 0.07 62 1009.3
20260509184015 89 0.0 3.5 0.00 0.07 0.07 62 1009.6
20260509183016 88 0.0 1.7 0.00 0.07 0.07 65 1009.9
20260509182015 87 293 0.9 5.2 0.00 0.07 0.07 63 1010.2
20260509181016 87 180 1.7 7.0 0.00 0.07 0.07 66 1010.0
20260509180016 86 158 0.9 5.2 0.00 0.07 0.07 66 1010.1
20260509175015 86 0.0 4.3 0.00 0.07 0.07 69 1010.4
20260509174015 85 0.0 3.5 0.00 0.07 0.07 71 1010.7
20260509173015 84 0.0 3.5 0.00 0.07 0.07 72 1010.7
20260509172016 84 180 0.9 4.3 0.00 0.07 0.07 77 1010.8
20260509171016 83 158 0.9 4.3 0.00 0.07 0.07 75 1010.6
20260509170015 82 0.0 3.5 0.00 0.07 0.07 81 1010.8
20260509165016 81 0.0 2.6 0.00 0.07 0.07 80 1011.0
20260509164037 80 180 0.9 4.3 0.00 0.07 0.07 82 1011.0
20260509163017 79 0.0 3.5 0.00 0.07 0.07 83 1011.0
20260509162037 79 0.0 1.7 0.00 0.07 0.07 82 1010.8
20260509161037 79 248 0.9 3.5 0.00 0.07 0.07 85 1010.8
20260509160017 78 0.0 1.7 0.00 0.07 0.07 88 1010.7
20260509155037 77 0.0 4.3 0.00 0.07 0.07 89 1010.6
20260509154017 77 203 0.9 4.3 0.00 0.07 0.07 92 1010.5
20260509153017 76 248 0.9 3.5 0.00 0.07 0.07 94 1010.8
20260509152017 75 0.0 1.7 0.00 0.07 0.07 95 1010.5
20260509151017 75 0.0 2.6 0.00 0.07 0.07 95 1010.8
20260509150017 74 0.0 1.7 0.00 0.07 0.07 95 1010.7
20260509145017 74 0.0 3.5 0.00 0.07 0.07 95 1010.7
20260509144037 74 180 0.9 4.3 0.00 0.07 0.07 95 1010.3
20260509143017 73 0.0 2.6 0.00 0.07 0.07 95 1010.3
20260509142037 73 0.0 1.7 0.00 0.07 0.07 95 1010.1
20260509141017 72 0.0 0.0 0.00 0.07 0.07 95 1010.1
20260509140017 72 0.0 0.0 0.00 0.07 0.07 95 1010.4
20260509135017 72 0.0 0.0 0.00 0.07 0.07 95 1010.6
20260509134017 72 0.0 0.0 0.00 0.07 0.07 95 1010.5
20260509133017 72 0.0 0.0 0.00 0.07 0.07 95 1010.6
20260509132017 72 0.0 0.0 0.00 0.07 0.07 95 1010.7
20260509131017 72 0.0 0.0 0.00 0.07 0.07 95 1010.6
20260509130017 72 0.0 0.0 0.00 0.07 0.07 95 1010.2
20260509125017 72 0.0 0.0 0.00 0.07 0.07 95 1009.9
20260509124017 72 0.0 0.0 0.00 0.07 0.07 95 1009.9
20260509123017 72 0.0 0.0 0.00 0.07 0.07 95 1010.0
20260509122017 72 0.0 0.0 0.00 0.07 0.07 95 1010.3
20260509121017 72 0.0 0.0 0.02 0.07 0.07 95 1010.3
20260509120037 72 0.0 0.0 0.04 0.07 0.07 95 1010.3
20260509115017 72 0.0 0.0 0.05 0.07 0.07 95 1010.3
20260509114016 72 0.0 0.0 0.05 0.07 0.07 95 1010.5
20260509113037 72 0.0 0.0 0.05 0.07 0.07 94 1010.5
20260509112017 72 0.0 0.0 0.05 0.07 0.07 94 1010.8
20260509111017 72 0.0 1.7 0.03 0.05 0.05 94 1010.9
20260509110037 72 0.0 0.0 0.01 0.03 0.03 94 1011.2
20260509105016 72 0.0 0.0 0.00 0.02 0.02 94 1011.2
20260509104016 72 0.0 0.0 0.00 0.02 0.02 94 1011.0
20260509103017 72 0.0 0.0 0.00 0.02 0.02 94 1011.0
20260509102016 72 0.0 0.0 0.00 0.02 0.02 94 1010.8
20260509101016 72 0.0 0.0 0.00 0.02 0.02 94 1010.3
20260509100016 72 0.0 0.0 0.00 0.02 0.02 94 1010.2
20260509095017 72 0.0 0.0 0.01 0.02 0.02 94 1009.9
20260509094036 72 0.0 0.0 0.02 0.02 0.02 94 1010.1
20260509093016 72 0.0 0.0 0.02 0.02 0.02 94 1010.1
20260509092017 72 0.0 0.0 0.02 0.02 0.02 94 1010.0
20260509091016 72 0.0 0.0 0.02 0.02 0.02 93 1009.8
20260509090016 72 0.0 0.0 0.02 0.02 0.02 93 1009.9
20260509085016 72 0.0 0.0 0.01 0.01 0.01 93 1010.1
20260509084057 72 0.0 0.0 0.00 0.00 0.00 93 1010.1
20260509083016 72 0.0 0.0 0.00 0.00 0.00 93 1010.3
20260509082016 72 0.0 0.9 0.00 0.00 0.00 93 1010.4
20260509081016 72 0.0 0.0 0.00 0.00 0.00 93 1010.5
20260509080036 72 0.0 0.0 0.00 0.00 0.00 93 1010.2
20260509075016 72 0.0 0.0 0.00 0.00 0.00 93 1010.1
20260509074016 72 0.0 0.0 0.00 0.00 0.00 92 1010.1
20260509073016 72 0.0 0.0 0.00 0.00 0.00 92 1010.3
20260509072016 72 0.0 0.0 0.00 0.00 0.00 92 1010.4
20260509071016 72 0.0 0.0 0.00 0.00 0.00 92 1010.4
20260509070016 72 0.0 0.0 0.00 0.00 0.00 92 1010.5
20260509065016 72 0.0 2.6 0.00 0.00 0.00 92 1010.2
20260509064016 72 0.0 2.6 0.00 0.00 0.00 92 1010.1
20260509063016 72 0.0 2.6 0.00 0.00 0.00 92 1010.0
20260509062016 72 180 0.9 4.3 0.00 0.00 0.00 91 1010.2
20260509061016 72 0.0 3.5 0.00 0.00 0.00 91 1010.1
20260509060016 73 0.0 5.2 0.00 0.00 0.00 90 1009.9
20260509055016 73 158 0.9 6.1 0.00 0.00 0.00 90 1009.7
20260509054016 73 158 0.9 5.2 0.00 0.00 0.00 89 1010.0
20260509053016 73 180 0.9 6.1 0.00 0.00 0.00 89 1010.0
20260509052016 73 0.0 2.6 0.00 0.00 0.00 89 1009.8
20260509051016 73 0.0 0.9 0.00 0.00 0.00 89 1009.6
20260509050016 73 0.0 1.7 0.00 0.00 0.00 89 1009.7
20260509045037 74 0.0 1.7 0.00 0.00 0.00 88 1009.6
20260509044017 74 0.0 1.7 0.00 0.00 0.00 87 1009.5
20260509043017 74 0.0 1.7 0.00 0.00 0.00 87 1009.7
20260509042017 74 0.0 1.7 0.00 0.00 0.00 87 1009.8
20260509041017 75 0.0 2.6 0.00 0.00 0.00 87 1010.0
20260509040017 75 0.0 0.0 0.00 0.00 0.00 87 1010.0
20260509035037 75 0.0 0.0 0.00 0.00 0.00 86 1010.0
20260509034017 74 0.0 0.0 0.00 0.00 0.00 86 1009.9